createdAt,value
2019-01-27T00:00:56.538Z,2.90
2019-01-27T00:01:56.514Z,2.90
2019-01-27T00:02:56.598Z,2.80
2019-01-27T00:03:56.508Z,3.00
2019-01-27T00:04:56.663Z,2.80
2019-01-27T00:05:56.488Z,2.50
2019-01-27T00:06:56.515Z,2.70
2019-01-27T00:07:56.451Z,2.90
2019-01-27T00:08:56.450Z,3.20
2019-01-27T00:09:56.613Z,2.80
2019-01-27T00:10:56.434Z,3.80
2019-01-27T00:11:56.422Z,3.40
2019-01-27T00:12:56.542Z,2.50
2019-01-27T00:13:56.433Z,3.40
2019-01-27T00:14:56.504Z,3.30
2019-01-27T00:15:56.435Z,3.10
2019-01-27T00:16:56.391Z,3.20
2019-01-27T00:17:56.382Z,3.00
2019-01-27T00:18:56.334Z,3.30
2019-01-27T00:19:56.440Z,3.10
2019-01-27T00:20:56.318Z,2.40
2019-01-27T00:21:56.335Z,3.70
2019-01-27T00:22:56.420Z,4.10
2019-01-27T00:23:56.279Z,3.60
2019-01-27T00:24:56.278Z,3.80
2019-01-27T00:25:56.259Z,3.10
2019-01-27T00:26:56.260Z,3.50
2019-01-27T00:27:56.292Z,3.60
2019-01-27T00:28:56.224Z,3.50
2019-01-27T00:29:56.214Z,3.50
2019-01-27T00:30:56.202Z,3.30
2019-01-27T00:31:56.218Z,2.80
2019-01-27T00:32:56.179Z,3.10
2019-01-27T00:33:56.204Z,3.40
2019-01-27T00:34:56.159Z,2.40
2019-01-27T00:35:56.150Z,3.20
2019-01-27T00:36:56.148Z,2.60
2019-01-27T00:37:56.153Z,1.90
2019-01-27T00:38:56.114Z,2.30
2019-01-27T00:39:56.138Z,2.60
2019-01-27T00:40:56.099Z,2.10
2019-01-27T00:41:56.089Z,2.40
2019-01-27T00:42:56.083Z,3.20
2019-01-27T00:43:56.091Z,2.00
2019-01-27T00:44:56.220Z,2.30
2019-01-27T00:45:56.042Z,2.00
2019-01-27T00:46:56.056Z,2.60
2019-01-27T00:47:56.026Z,2.10
2019-01-27T00:48:56.008Z,1.90
2019-01-27T00:49:56.033Z,2.40
2019-01-27T00:50:55.995Z,3.60
2019-01-27T00:51:56.036Z,1.80
2019-01-27T00:52:55.970Z,2.20
2019-01-27T00:53:55.958Z,1.90
2019-01-27T00:54:55.957Z,3.30
2019-01-27T00:55:55.953Z,2.00
2019-01-27T00:56:55.927Z,2.80
2019-01-27T00:57:56.206Z,1.70
2019-01-27T00:58:55.932Z,1.80
2019-01-27T00:59:56.042Z,2.70
2019-01-27T01:00:55.886Z,2.10
2019-01-27T01:01:55.930Z,3.10
2019-01-27T01:02:55.908Z,2.70
2019-01-27T01:03:55.872Z,2.60
2019-01-27T01:04:55.877Z,3.60
2019-01-27T01:05:55.828Z,2.50
2019-01-27T01:06:56.040Z,2.30
2019-01-27T01:07:55.817Z,1.70
2019-01-27T01:08:55.814Z,2.20
2019-01-27T01:09:55.799Z,2.50
2019-01-27T01:10:55.962Z,2.00
2019-01-27T01:11:55.842Z,2.60
2019-01-27T01:12:55.892Z,2.00
2019-01-27T01:13:55.857Z,1.50
2019-01-27T01:14:55.905Z,3.40
2019-01-27T01:15:55.928Z,2.00
2019-01-27T01:16:55.742Z,2.30
2019-01-27T01:17:55.789Z,2.80
2019-01-27T01:18:55.870Z,2.50
2019-01-27T01:19:55.725Z,1.70
2019-01-27T01:20:55.709Z,2.30
2019-01-27T01:21:55.741Z,2.50
2019-01-27T01:22:55.678Z,1.90
2019-01-27T01:23:55.711Z,2.30
2019-01-27T01:24:55.924Z,1.90
2019-01-27T01:25:55.691Z,3.30
2019-01-27T01:26:55.648Z,1.80
2019-01-27T01:27:55.707Z,1.80
2019-01-27T01:28:55.655Z,2.40
2019-01-27T01:29:55.663Z,2.00
2019-01-27T01:30:55.717Z,3.60
2019-01-27T01:31:55.763Z,2.40
2019-01-27T01:32:55.617Z,5.50
2019-01-27T01:33:55.701Z,2.30
2019-01-27T01:34:55.676Z,3.10
2019-01-27T01:35:55.589Z,2.70
2019-01-27T01:36:55.531Z,4.40
2019-01-27T01:37:55.710Z,5.60
2019-01-27T01:38:55.609Z,2.00
2019-01-27T01:39:55.581Z,2.90
2019-01-27T01:40:55.541Z,3.10
2019-01-27T01:41:55.519Z,2.60
2019-01-27T01:42:55.519Z,3.00
2019-01-27T01:43:55.512Z,1.80
2019-01-27T01:44:55.611Z,2.60
2019-01-27T01:45:55.564Z,2.60
2019-01-27T01:46:55.406Z,3.00
2019-01-27T01:47:55.416Z,3.20
2019-01-27T01:48:56.283Z,2.10
2019-01-27T01:49:56.237Z,1.80
2019-01-27T01:50:55.667Z,1.50
2019-01-27T01:51:55.467Z,2.00
2019-01-27T01:52:55.461Z,1.60
2019-01-27T01:53:55.439Z,2.30
2019-01-27T01:54:55.572Z,4.10
2019-01-27T01:55:55.363Z,2.30
2019-01-27T01:56:55.300Z,1.80
2019-01-27T01:57:55.310Z,2.10
2019-01-27T01:58:55.366Z,2.30
2019-01-27T01:59:55.362Z,3.10
2019-01-27T02:00:55.284Z,3.20
2019-01-27T02:01:57.234Z,1.90
2019-01-27T02:02:55.302Z,3.10
2019-01-27T02:03:55.253Z,2.50
2019-01-27T02:04:56.241Z,3.90
2019-01-27T02:05:55.245Z,4.40
2019-01-27T02:06:55.235Z,1.70
2019-01-27T02:07:55.379Z,1.60
2019-01-27T02:08:55.233Z,3.50
2019-01-27T02:09:56.201Z,2.80
2019-01-27T02:10:55.192Z,4.40
2019-01-27T02:11:55.203Z,3.40
2019-01-27T02:12:55.222Z,2.00
2019-01-27T02:13:55.202Z,1.50
2019-01-27T02:14:55.164Z,2.20
2019-01-27T02:15:55.434Z,2.80
2019-01-27T02:16:55.218Z,4.40
2019-01-27T02:17:55.246Z,2.10
2019-01-27T02:18:55.207Z,2.60
2019-01-27T02:19:55.174Z,3.30
2019-01-27T02:20:55.057Z,1.60
2019-01-27T02:21:55.049Z,2.70
2019-01-27T02:22:55.134Z,1.60
2019-01-27T02:23:55.047Z,1.80
2019-01-27T02:24:55.013Z,5.30
2019-01-27T02:25:55.098Z,2.00
2019-01-27T02:26:55.101Z,1.70
2019-01-27T02:27:55.254Z,1.80
2019-01-27T02:28:55.020Z,1.80
2019-01-27T02:29:55.058Z,1.30
2019-01-27T02:30:54.936Z,1.30
2019-01-27T02:31:55.063Z,1.60
2019-01-27T02:32:54.946Z,1.90
2019-01-27T02:33:54.916Z,1.40
2019-01-27T02:34:54.969Z,2.10
2019-01-27T02:35:54.968Z,1.40
2019-01-27T02:36:55.099Z,1.90
2019-01-27T02:37:54.898Z,2.20
2019-01-27T02:38:54.854Z,3.00
2019-01-27T02:39:54.845Z,2.10
2019-01-27T02:40:54.853Z,1.70
2019-01-27T02:41:54.875Z,2.30
2019-01-27T02:42:55.664Z,1.90
2019-01-27T02:43:54.797Z,3.10
2019-01-27T02:44:54.806Z,2.30
2019-01-27T02:45:54.776Z,3.20
2019-01-27T02:46:55.127Z,1.70
2019-01-27T02:47:54.798Z,2.90
2019-01-27T02:48:54.745Z,1.60
2019-01-27T02:49:54.872Z,2.20
2019-01-27T02:50:54.754Z,3.20
2019-01-27T02:51:54.825Z,2.10
2019-01-27T02:52:54.746Z,2.30
2019-01-27T02:53:54.693Z,3.40
2019-01-27T02:54:54.678Z,2.80
2019-01-27T02:55:54.673Z,2.00
2019-01-27T02:56:54.677Z,3.20
2019-01-27T02:57:54.699Z,3.10
2019-01-27T02:58:54.644Z,2.40
2019-01-27T02:59:54.670Z,2.90
2019-01-27T03:00:54.711Z,4.60
2019-01-27T03:01:54.661Z,2.20
2019-01-27T03:02:54.688Z,4.40
2019-01-27T03:03:54.593Z,3.30
2019-01-27T03:04:54.575Z,3.60
2019-01-27T03:05:54.618Z,2.50
2019-01-27T03:06:54.573Z,3.00
2019-01-27T03:07:54.708Z,4.10
2019-01-27T03:08:54.573Z,4.60
2019-01-27T03:09:54.523Z,3.50
2019-01-27T03:10:54.539Z,2.60
2019-01-27T03:11:54.545Z,2.70
2019-01-27T03:12:54.486Z,3.40
2019-01-27T03:13:55.150Z,3.80
2019-01-27T03:14:54.473Z,3.10
2019-01-27T03:15:54.482Z,5.00
2019-01-27T03:16:54.447Z,3.30
2019-01-27T03:17:54.453Z,3.40
2019-01-27T03:18:54.510Z,2.30
2019-01-27T03:19:54.415Z,2.80
2019-01-27T03:20:54.432Z,2.90
2019-01-27T03:21:54.616Z,4.20
2019-01-27T03:22:54.459Z,2.60
2019-01-27T03:23:54.406Z,3.20
2019-01-27T03:24:54.461Z,2.40
2019-01-27T03:25:54.357Z,2.60
2019-01-27T03:26:54.400Z,4.60
2019-01-27T03:27:54.388Z,2.70
2019-01-27T03:28:54.382Z,1.70
2019-01-27T03:29:54.363Z,2.00
2019-01-27T03:30:54.331Z,2.90
2019-01-27T03:31:54.315Z,2.60
2019-01-27T03:32:54.853Z,2.00
2019-01-27T03:33:54.424Z,2.00
2019-01-27T03:34:54.292Z,2.00
2019-01-27T03:35:55.347Z,2.10
2019-01-27T03:36:54.304Z,1.80
2019-01-27T03:37:54.282Z,3.40
2019-01-27T03:38:54.224Z,1.80
2019-01-27T03:39:54.226Z,1.80
2019-01-27T03:40:54.255Z,2.20
2019-01-27T03:41:54.207Z,2.50
2019-01-27T03:42:54.200Z,2.40
2019-01-27T03:43:54.242Z,4.30
2019-01-27T03:44:54.162Z,2.10
2019-01-27T03:45:54.145Z,2.20
2019-01-27T03:46:54.141Z,2.20
2019-01-27T03:47:54.118Z,3.20
2019-01-27T03:48:54.104Z,2.00
2019-01-27T03:49:54.103Z,3.30
2019-01-27T03:50:54.144Z,1.30
2019-01-27T03:51:54.134Z,4.00
2019-01-27T03:52:54.074Z,2.70
2019-01-27T03:53:54.098Z,3.20
2019-01-27T03:54:54.057Z,2.50
2019-01-27T03:55:54.046Z,3.10
2019-01-27T03:56:54.148Z,1.60
2019-01-27T03:57:54.119Z,2.90
2019-01-27T03:58:55.716Z,1.90
2019-01-27T03:59:54.072Z,1.80
2019-01-27T04:00:54.003Z,2.60
2019-01-27T04:01:54.099Z,1.50
2019-01-27T04:02:54.028Z,1.90
2019-01-27T04:03:54.202Z,2.00
2019-01-27T04:04:54.112Z,1.40
2019-01-27T04:05:53.995Z,1.80
2019-01-27T04:06:54.127Z,3.20
2019-01-27T04:07:53.964Z,1.20
2019-01-27T04:08:53.909Z,1.40
2019-01-27T04:09:53.930Z,2.50
2019-01-27T04:10:53.990Z,1.60
2019-01-27T04:11:53.990Z,2.10
2019-01-27T04:12:53.867Z,1.40
2019-01-27T04:13:53.848Z,1.30
2019-01-27T04:14:53.849Z,1.10
2019-01-27T04:15:53.822Z,1.00
2019-01-27T04:16:53.929Z,1.20
2019-01-27T04:17:53.893Z,1.10
2019-01-27T04:18:53.801Z,0.90
2019-01-27T04:19:54.015Z,3.10
2019-01-27T04:20:53.914Z,1.10
2019-01-27T04:21:53.834Z,1.00
2019-01-27T04:22:53.757Z,1.60
2019-01-27T04:23:53.798Z,1.70
2019-01-27T04:24:53.823Z,0.80
2019-01-27T04:25:53.743Z,1.80
2019-01-27T04:26:53.763Z,1.30
2019-01-27T04:27:53.928Z,1.80
2019-01-27T04:28:53.722Z,1.00
2019-01-27T04:29:53.783Z,1.50
2019-01-27T04:30:53.838Z,0.90
2019-01-27T04:31:53.763Z,0.90
2019-01-27T04:32:53.739Z,1.00
2019-01-27T04:33:53.901Z,2.20
2019-01-27T04:34:53.694Z,0.80
2019-01-27T04:35:53.835Z,1.00
2019-01-27T04:36:53.800Z,0.80
2019-01-27T04:37:53.970Z,2.00
2019-01-27T04:38:53.663Z,1.50
2019-01-27T04:39:53.685Z,0.70
2019-01-27T04:40:53.568Z,1.50
2019-01-27T04:41:53.605Z,2.20
2019-01-27T04:42:53.561Z,1.10
2019-01-27T04:43:53.550Z,0.90
2019-01-27T04:44:53.517Z,0.90
2019-01-27T04:45:53.504Z,3.50
2019-01-27T04:46:53.529Z,0.40
2019-01-27T04:47:53.514Z,1.10
2019-01-27T04:48:53.509Z,0.80
2019-01-27T04:49:53.517Z,2.00
2019-01-27T04:50:53.470Z,0.70
2019-01-27T04:51:53.444Z,1.00
2019-01-27T04:52:53.433Z,0.80
2019-01-27T04:53:53.435Z,0.50
2019-01-27T04:54:53.418Z,0.60
2019-01-27T04:55:53.441Z,0.40
2019-01-27T04:56:53.412Z,1.90
2019-01-27T04:57:53.382Z,0.70
2019-01-27T04:58:53.382Z,1.70
2019-01-27T04:59:53.425Z,0.80
2019-01-27T05:00:53.351Z,0.50
2019-01-27T05:01:53.342Z,1.40
2019-01-27T05:02:54.164Z,0.40
2019-01-27T05:03:53.366Z,0.60
2019-01-27T05:04:53.327Z,0.40
2019-01-27T05:05:53.394Z,0.40
2019-01-27T05:06:53.391Z,0.90
2019-01-27T05:07:53.280Z,0.50
2019-01-27T05:08:53.351Z,1.10
2019-01-27T05:09:53.392Z,1.20
2019-01-27T05:10:53.258Z,0.70
2019-01-27T05:11:53.389Z,0.60
2019-01-27T05:12:53.265Z,0.50
2019-01-27T05:13:53.311Z,0.30
2019-01-27T05:14:53.221Z,0.80
2019-01-27T05:15:53.369Z,0.70
2019-01-27T05:16:53.294Z,0.60
2019-01-27T05:17:53.332Z,0.60
2019-01-27T05:18:53.268Z,0.60
2019-01-27T05:19:53.153Z,0.60
2019-01-27T05:20:53.147Z,1.00
2019-01-27T05:21:53.130Z,0.60
2019-01-27T05:22:53.149Z,2.70
2019-01-27T05:23:53.106Z,1.00
2019-01-27T05:24:53.647Z,1.60
2019-01-27T05:25:53.111Z,0.60
2019-01-27T05:26:53.071Z,1.30
2019-01-27T05:27:53.063Z,1.10
2019-01-27T05:28:53.206Z,2.00
2019-01-27T05:29:53.232Z,0.70
2019-01-27T05:30:53.105Z,1.90
2019-01-27T05:31:53.031Z,4.20
2019-01-27T05:32:53.012Z,1.60
2019-01-27T05:33:52.997Z,1.70
2019-01-27T05:34:53.012Z,1.00
2019-01-27T05:35:53.042Z,1.50
2019-01-27T05:36:53.077Z,1.40
2019-01-27T05:37:52.987Z,0.90
2019-01-27T05:38:52.944Z,1.90
2019-01-27T05:39:52.931Z,1.60
2019-01-27T05:40:52.939Z,2.20
2019-01-27T05:41:52.960Z,1.10
2019-01-27T05:42:53.041Z,0.70
2019-01-27T05:43:52.888Z,1.60
2019-01-27T05:44:52.895Z,1.80
2019-01-27T05:45:53.102Z,2.90
2019-01-27T05:46:52.857Z,1.10
2019-01-27T05:47:52.856Z,1.80
2019-01-27T05:48:52.933Z,1.10
2019-01-27T05:49:52.824Z,0.70
2019-01-27T05:50:52.868Z,0.70
2019-01-27T05:51:52.849Z,0.70
2019-01-27T05:52:52.804Z,0.80
2019-01-27T05:53:52.848Z,0.80
2019-01-27T05:54:52.827Z,0.90
2019-01-27T05:55:52.763Z,1.20
2019-01-27T05:56:56.575Z,2.20
2019-01-27T05:57:52.764Z,0.60
2019-01-27T05:58:52.749Z,1.20
2019-01-27T05:59:52.770Z,2.50
2019-01-27T06:00:53.668Z,0.50
2019-01-27T06:01:52.708Z,1.20
2019-01-27T06:02:52.723Z,2.40
2019-01-27T06:03:52.792Z,1.70
2019-01-27T06:04:52.766Z,0.50
2019-01-27T06:05:52.660Z,0.60
2019-01-27T06:06:52.922Z,0.70
2019-01-27T06:07:52.785Z,0.70
2019-01-27T06:08:52.622Z,0.60
2019-01-27T06:09:52.628Z,1.00
2019-01-27T06:10:52.637Z,0.80
2019-01-27T06:11:52.599Z,0.90
2019-01-27T06:12:52.599Z,1.00
2019-01-27T06:13:52.662Z,1.00
2019-01-27T06:14:52.573Z,0.90
2019-01-27T06:15:52.618Z,1.10
2019-01-27T06:16:52.623Z,1.20
2019-01-27T06:17:52.595Z,0.90
2019-01-27T06:18:52.542Z,1.00
2019-01-27T06:19:52.516Z,1.70
2019-01-27T06:20:52.501Z,1.10
2019-01-27T06:21:52.496Z,1.20
2019-01-27T06:22:52.831Z,0.90
2019-01-27T06:23:52.473Z,1.50
2019-01-27T06:24:52.466Z,3.30
2019-01-27T06:25:52.473Z,1.40
2019-01-27T06:26:52.602Z,0.80
2019-01-27T06:27:52.503Z,1.20
2019-01-27T06:28:52.436Z,2.60
2019-01-27T06:29:52.449Z,0.90
2019-01-27T06:30:52.390Z,1.20
2019-01-27T06:31:52.384Z,1.50
2019-01-27T06:32:52.414Z,0.80
2019-01-27T06:33:52.358Z,0.90
2019-01-27T06:34:52.380Z,1.20
2019-01-27T06:35:52.508Z,2.70
2019-01-27T06:36:52.348Z,2.60
2019-01-27T06:37:52.361Z,2.60
2019-01-27T06:38:52.313Z,2.00
2019-01-27T06:39:52.429Z,1.00
2019-01-27T06:40:52.289Z,0.80
2019-01-27T06:41:52.414Z,2.50
2019-01-27T06:42:52.271Z,1.80
2019-01-27T06:43:52.276Z,1.40
2019-01-27T06:44:52.537Z,1.10
2019-01-27T06:45:52.298Z,1.30
2019-01-27T06:46:52.226Z,1.40
2019-01-27T06:47:52.219Z,1.10
2019-01-27T06:48:52.433Z,2.50
2019-01-27T06:49:52.219Z,2.00
2019-01-27T06:50:52.241Z,1.80
2019-01-27T06:51:52.260Z,3.00
2019-01-27T06:52:52.165Z,4.70
2019-01-27T06:53:52.169Z,5.30
2019-01-27T06:54:52.182Z,3.80
2019-01-27T06:55:52.244Z,1.10
2019-01-27T06:56:52.137Z,1.90
2019-01-27T06:57:52.138Z,1.20
2019-01-27T06:58:53.649Z,1.40
2019-01-27T06:59:52.083Z,4.60
2019-01-27T07:00:52.071Z,1.70
2019-01-27T07:01:52.073Z,0.80
2019-01-27T07:02:52.052Z,0.70
2019-01-27T07:03:53.284Z,2.50
2019-01-27T07:04:52.048Z,1.00
2019-01-27T07:05:52.020Z,2.40
2019-01-27T07:06:52.014Z,2.20
2019-01-27T07:07:52.045Z,2.50
2019-01-27T07:08:52.013Z,2.30
2019-01-27T07:09:51.982Z,0.90
2019-01-27T07:10:51.986Z,2.50
2019-01-27T07:11:51.955Z,1.60
2019-01-27T07:12:52.054Z,3.10
2019-01-27T07:13:51.954Z,2.50
2019-01-27T07:14:51.926Z,1.70
2019-01-27T07:15:51.988Z,1.50
2019-01-27T07:16:52.024Z,3.10
2019-01-27T07:17:51.893Z,1.30
2019-01-27T07:18:51.907Z,1.10
2019-01-27T07:19:51.871Z,0.80
2019-01-27T07:20:51.861Z,1.10
2019-01-27T07:21:51.855Z,1.80
2019-01-27T07:22:51.853Z,1.30
2019-01-27T07:23:51.850Z,1.90
2019-01-27T07:24:51.826Z,1.30
2019-01-27T07:25:51.866Z,2.20
2019-01-27T07:26:51.861Z,1.00
2019-01-27T07:27:51.821Z,1.10
2019-01-27T07:28:51.893Z,2.40
2019-01-27T07:29:51.767Z,2.30
2019-01-27T07:30:51.756Z,1.80
2019-01-27T07:31:51.779Z,1.90
2019-01-27T07:32:51.736Z,3.40
2019-01-27T07:33:51.831Z,1.30
2019-01-27T07:34:51.743Z,1.10
2019-01-27T07:35:51.706Z,1.80
2019-01-27T07:36:51.693Z,1.10
2019-01-27T07:37:51.681Z,1.20
2019-01-27T07:38:51.716Z,4.50
2019-01-27T07:39:51.661Z,1.60
2019-01-27T07:40:51.695Z,1.30
2019-01-27T07:41:51.642Z,1.30
2019-01-27T07:42:51.627Z,1.80
2019-01-27T07:43:51.634Z,1.10
2019-01-27T07:44:51.607Z,1.30
2019-01-27T07:45:51.613Z,1.40
2019-01-27T07:46:51.591Z,4.70
2019-01-27T07:47:51.582Z,1.10
2019-01-27T07:48:51.587Z,3.50
2019-01-27T07:49:51.565Z,2.80
2019-01-27T07:50:51.543Z,1.20
2019-01-27T07:51:51.556Z,1.60
2019-01-27T07:52:51.718Z,1.60
2019-01-27T07:53:51.511Z,1.90
2019-01-27T07:54:51.518Z,3.10
2019-01-27T07:55:51.493Z,1.40
2019-01-27T07:56:51.489Z,1.80
2019-01-27T07:57:51.505Z,1.40
2019-01-27T07:58:51.459Z,1.70
2019-01-27T07:59:51.466Z,1.90
2019-01-27T08:00:51.438Z,2.10
2019-01-27T08:01:51.429Z,5.20
2019-01-27T08:02:51.419Z,4.10
2019-01-27T08:03:51.420Z,3.40
2019-01-27T08:04:51.418Z,1.60
2019-01-27T08:05:51.386Z,2.40
2019-01-27T08:06:51.373Z,4.20
2019-01-27T08:07:51.363Z,3.20
2019-01-27T08:08:51.407Z,2.70
2019-01-27T08:09:51.363Z,4.80
2019-01-27T08:10:51.330Z,3.40
2019-01-27T08:11:51.323Z,6.30
2019-01-27T08:12:51.310Z,4.20
2019-01-27T08:13:51.495Z,3.40
2019-01-27T08:14:51.305Z,3.40
2019-01-27T08:15:51.298Z,5.90
2019-01-27T08:16:51.272Z,3.40
2019-01-27T08:17:51.406Z,5.60
2019-01-27T08:19:50.076Z,5.00
2019-01-27T08:21:27.251Z,5.10
2019-01-27T08:22:41.141Z,6.70
2019-01-27T08:24:20.396Z,4.90
2019-01-27T08:25:20.367Z,5.60
2019-01-27T08:26:21.048Z,5.00
2019-01-27T08:27:23.534Z,8.50
2019-01-27T08:28:20.405Z,4.70
2019-01-27T08:29:20.299Z,6.50
2019-01-27T08:30:20.397Z,4.30
2019-01-27T08:31:20.267Z,5.30
2019-01-27T08:32:20.339Z,5.60
2019-01-27T08:33:20.617Z,4.90
2019-01-27T08:37:06.889Z,2.70
2019-01-27T08:38:06.877Z,3.70
2019-01-27T08:39:06.903Z,4.90
2019-01-27T08:40:06.869Z,4.60
2019-01-27T08:41:06.853Z,5.30
2019-01-27T08:42:06.836Z,6.40
2019-01-27T08:43:06.827Z,5.40
2019-01-27T08:44:06.852Z,5.40
2019-01-27T08:45:06.835Z,5.70
2019-01-27T08:46:06.880Z,4.20
2019-01-27T08:47:06.790Z,4.30
2019-01-27T08:48:06.787Z,6.40
2019-01-27T08:49:06.780Z,5.50
2019-01-27T08:50:06.802Z,6.00
2019-01-27T08:51:06.757Z,7.90
2019-01-27T08:52:06.735Z,4.50
2019-01-27T08:53:06.748Z,5.80
2019-01-27T08:54:06.735Z,4.20
2019-01-27T08:55:06.752Z,4.20
2019-01-27T08:56:06.760Z,4.70
2019-01-27T08:57:06.699Z,4.20
2019-01-27T08:58:06.682Z,3.60
2019-01-27T08:59:06.663Z,2.40
2019-01-27T09:00:06.717Z,2.70
2019-01-27T09:01:06.635Z,3.10
2019-01-27T09:02:06.630Z,5.60
2019-01-27T09:03:06.615Z,3.90
2019-01-27T09:04:06.607Z,3.20
2019-01-27T09:05:06.642Z,3.40
2019-01-27T09:06:06.598Z,4.20
2019-01-27T09:07:06.570Z,2.40
2019-01-27T09:08:06.557Z,5.40
2019-01-27T09:09:06.556Z,4.20
2019-01-27T09:10:06.551Z,6.70
2019-01-27T09:11:06.579Z,5.30
2019-01-27T09:12:06.530Z,3.60
2019-01-27T09:13:11.198Z,2.10
2019-01-27T09:14:06.535Z,3.00
2019-01-27T09:15:06.485Z,3.00
2019-01-27T09:16:06.475Z,2.00
2019-01-27T09:17:06.521Z,3.00
2019-01-27T09:18:06.491Z,1.90
2019-01-27T09:19:06.459Z,2.10
2019-01-27T09:20:06.435Z,2.40
2019-01-27T09:21:06.420Z,4.60
2019-01-27T09:22:06.469Z,2.10
2019-01-27T09:23:06.425Z,2.90
2019-01-27T09:24:06.405Z,4.00
2019-01-27T09:25:06.398Z,3.30
2019-01-27T09:26:06.373Z,2.20
2019-01-27T09:27:06.349Z,2.70
2019-01-27T09:28:06.340Z,3.60
2019-01-27T09:29:06.352Z,5.40
2019-01-27T09:30:06.373Z,4.10
2019-01-27T09:31:06.313Z,5.80
2019-01-27T09:32:06.296Z,1.60
2019-01-27T09:33:06.287Z,2.10
2019-01-27T09:34:13.003Z,5.50
2019-01-27T09:35:07.307Z,2.30
2019-01-27T09:36:06.258Z,3.60
2019-01-27T09:37:06.272Z,3.10
2019-01-27T09:38:06.268Z,3.00
2019-01-27T09:39:06.449Z,1.60
2019-01-27T09:40:06.951Z,4.10
2019-01-27T09:41:06.250Z,4.10
2019-01-27T09:42:06.205Z,4.30
2019-01-27T09:43:06.180Z,2.50
2019-01-27T09:44:06.174Z,2.80
2019-01-27T09:45:06.172Z,3.20
2019-01-27T09:46:11.233Z,3.80
2019-01-27T09:47:07.167Z,2.30
2019-01-27T09:48:06.141Z,1.70
2019-01-27T09:49:06.187Z,3.10
2019-01-27T09:50:06.130Z,8.30
2019-01-27T09:51:06.117Z,5.50
2019-01-27T09:52:06.109Z,3.60
2019-01-27T09:53:06.086Z,6.90
2019-01-27T09:54:06.081Z,2.10
2019-01-27T09:55:06.129Z,2.20
2019-01-27T09:56:06.091Z,2.60
2019-01-27T09:57:06.053Z,4.10
2019-01-27T09:58:06.034Z,6.80
2019-01-27T09:59:06.036Z,2.90
2019-01-27T10:00:06.047Z,4.70
2019-01-27T10:01:05.994Z,3.50
2019-01-27T10:02:07.432Z,4.60
2019-01-27T10:03:05.967Z,6.00
2019-01-27T10:04:05.974Z,3.70
2019-01-27T10:05:05.962Z,6.40
2019-01-27T10:06:06.014Z,9.40
2019-01-27T10:07:05.941Z,7.30
2019-01-27T10:08:05.931Z,6.10
2019-01-27T10:09:05.913Z,4.70
2019-01-27T10:10:05.908Z,3.00
2019-01-27T10:11:05.904Z,5.40
2019-01-27T10:12:05.873Z,1.50
2019-01-27T10:13:05.861Z,3.50
2019-01-27T10:14:05.934Z,2.40
2019-01-27T10:15:05.864Z,3.50
2019-01-27T10:16:05.882Z,2.60
2019-01-27T10:17:05.961Z,5.20
2019-01-27T10:18:05.837Z,2.40
2019-01-27T10:19:05.823Z,2.20
2019-01-27T10:20:05.953Z,3.90
2019-01-27T10:21:05.808Z,4.70
2019-01-27T10:22:05.801Z,3.40
2019-01-27T10:23:05.750Z,3.10
2019-01-27T10:24:05.774Z,4.30
2019-01-27T10:25:05.742Z,5.90
2019-01-27T10:26:05.754Z,5.50
2019-01-27T10:27:05.729Z,3.90
2019-01-27T10:28:05.702Z,3.30
2019-01-27T10:29:05.705Z,2.60
2019-01-27T10:30:05.679Z,6.30
2019-01-27T10:31:05.677Z,3.90
2019-01-27T10:32:05.677Z,2.00
2019-01-27T10:33:05.714Z,4.40
2019-01-27T10:34:05.697Z,3.30
2019-01-27T10:35:05.661Z,2.60
2019-01-27T10:36:05.674Z,3.90
2019-01-27T10:37:12.052Z,2.00
2019-01-27T10:38:06.662Z,3.90
2019-01-27T10:39:05.585Z,3.60
2019-01-27T10:40:09.131Z,5.00
2019-01-27T10:41:05.587Z,3.90
2019-01-27T10:42:05.715Z,3.50
2019-01-27T10:43:05.552Z,4.20
2019-01-27T10:44:05.530Z,3.90
2019-01-27T10:45:05.528Z,4.20
2019-01-27T10:46:05.567Z,2.30
2019-01-27T10:47:05.980Z,2.40
2019-01-27T10:48:05.508Z,3.70
2019-01-27T10:49:05.496Z,1.30
2019-01-27T10:50:06.450Z,2.80
2019-01-27T10:51:05.473Z,3.10
2019-01-27T10:52:05.573Z,5.30
2019-01-27T10:53:05.547Z,1.60
2019-01-27T10:54:05.429Z,2.30
2019-01-27T10:55:05.949Z,6.90
2019-01-27T10:56:05.401Z,3.30
2019-01-27T10:57:05.390Z,2.00
2019-01-27T10:58:05.380Z,4.30
2019-01-27T10:59:05.468Z,5.60
2019-01-27T11:00:05.377Z,5.10
2019-01-27T11:01:05.362Z,4.40
2019-01-27T11:02:05.345Z,4.00
2019-01-27T11:03:05.326Z,4.70
2019-01-27T11:04:05.323Z,4.50
2019-01-27T11:05:05.324Z,2.00
2019-01-27T11:06:05.303Z,3.60
2019-01-27T11:07:05.320Z,4.10
2019-01-27T11:08:05.356Z,3.10
2019-01-27T11:09:05.278Z,4.10
2019-01-27T11:10:05.287Z,3.50
2019-01-27T11:11:05.303Z,3.90
2019-01-27T11:12:05.235Z,7.80
2019-01-27T11:13:05.229Z,4.30
2019-01-27T11:14:05.235Z,5.50
2019-01-27T11:15:05.236Z,2.70
2019-01-27T11:16:05.190Z,5.60
2019-01-27T11:17:05.205Z,3.70
2019-01-27T11:18:05.171Z,5.00
2019-01-27T11:19:05.162Z,10.80
2019-01-27T11:20:05.154Z,5.60
2019-01-27T11:21:05.147Z,6.80
2019-01-27T11:22:05.145Z,5.10
2019-01-27T11:23:05.160Z,6.40
2019-01-27T11:24:05.118Z,13.20
2019-01-27T11:25:05.096Z,5.30
2019-01-27T11:26:05.136Z,7.10
2019-01-27T11:27:06.956Z,3.60
2019-01-27T11:28:05.922Z,10.30
2019-01-27T11:29:05.082Z,8.80
2019-01-27T11:30:05.087Z,9.00
2019-01-27T11:31:05.035Z,7.70
2019-01-27T11:32:05.020Z,9.90
2019-01-27T11:33:05.011Z,11.80
2019-01-27T11:34:05.004Z,7.10
2019-01-27T11:35:05.058Z,6.80
2019-01-27T11:36:04.980Z,7.30
2019-01-27T11:37:04.966Z,12.10
2019-01-27T11:38:04.958Z,11.40
2019-01-27T11:39:04.947Z,4.80
2019-01-27T11:40:04.942Z,6.10
2019-01-27T11:41:04.953Z,5.70
2019-01-27T11:42:04.914Z,6.10
2019-01-27T11:43:04.903Z,3.50
2019-01-27T11:44:04.895Z,8.80
2019-01-27T11:45:04.883Z,4.60
2019-01-27T11:46:05.098Z,3.70
2019-01-27T11:47:04.930Z,2.40
2019-01-27T11:48:04.881Z,2.90
2019-01-27T11:49:04.844Z,4.20
2019-01-27T11:50:04.844Z,2.10
2019-01-27T11:51:05.456Z,5.10
2019-01-27T11:52:04.823Z,3.00
2019-01-27T11:53:04.865Z,5.00
2019-01-27T11:54:04.797Z,4.80
2019-01-27T11:55:04.776Z,3.10
2019-01-27T11:56:04.766Z,5.50
2019-01-27T11:57:04.766Z,4.50
2019-01-27T11:58:04.747Z,5.10
2019-01-27T11:59:05.525Z,6.00
2019-01-27T12:00:04.722Z,5.70
2019-01-27T12:01:04.744Z,6.50
2019-01-27T12:02:07.461Z,4.50
2019-01-27T12:03:04.690Z,7.60
2019-01-27T12:04:04.694Z,6.30
2019-01-27T12:05:04.676Z,7.00
2019-01-27T12:06:04.671Z,13.80
2019-01-27T12:07:04.667Z,9.40
2019-01-27T12:08:04.637Z,6.80
2019-01-27T12:09:04.630Z,5.90
2019-01-27T12:10:04.668Z,5.80
2019-01-27T12:11:04.611Z,9.30
2019-01-27T12:12:04.594Z,5.90
2019-01-27T12:13:04.619Z,3.00
2019-01-27T12:14:04.578Z,4.90
2019-01-27T12:15:04.563Z,7.70
2019-01-27T12:16:04.586Z,3.70
2019-01-27T12:17:04.540Z,5.40
2019-01-27T12:18:04.531Z,6.90
2019-01-27T12:19:04.541Z,7.60
2019-01-27T12:20:04.507Z,2.60
2019-01-27T12:21:04.501Z,2.20
2019-01-27T12:22:04.527Z,6.50
2019-01-27T12:23:04.477Z,3.70
2019-01-27T12:24:04.465Z,3.70
2019-01-27T12:25:04.497Z,6.80
2019-01-27T12:26:04.452Z,7.10
2019-01-27T12:27:04.437Z,5.80
2019-01-27T12:28:04.659Z,5.80
2019-01-27T12:29:04.410Z,3.90
2019-01-27T12:30:04.401Z,5.00
2019-01-27T12:31:04.421Z,2.30
2019-01-27T12:32:04.383Z,4.40
2019-01-27T12:33:04.418Z,3.20
2019-01-27T12:34:04.358Z,3.40
2019-01-27T12:35:04.351Z,3.80
2019-01-27T12:36:04.346Z,2.90
2019-01-27T12:37:04.348Z,2.40
2019-01-27T12:38:04.327Z,3.60
2019-01-27T12:39:04.331Z,2.00
2019-01-27T12:40:04.331Z,3.00
2019-01-27T12:41:04.430Z,8.90
2019-01-27T12:42:04.413Z,4.40
2019-01-27T12:43:04.285Z,2.20
2019-01-27T12:44:04.252Z,3.90
2019-01-27T12:45:04.263Z,2.80
2019-01-27T12:46:04.249Z,2.00
2019-01-27T12:47:04.226Z,1.90
2019-01-27T12:48:04.207Z,6.70
2019-01-27T12:49:04.574Z,7.70
2019-01-27T12:50:04.188Z,5.20
2019-01-27T12:51:04.177Z,5.70
2019-01-27T12:52:04.175Z,5.10
2019-01-27T12:53:04.196Z,4.00
2019-01-27T12:54:04.185Z,3.60
2019-01-27T12:55:04.137Z,4.40
2019-01-27T12:56:04.126Z,2.40
2019-01-27T12:57:04.118Z,3.50
2019-01-27T12:58:04.455Z,3.10
2019-01-27T12:59:04.089Z,3.00
2019-01-27T13:00:04.091Z,2.50
2019-01-27T13:01:04.073Z,2.70
2019-01-27T13:02:04.060Z,4.40
2019-01-27T13:03:04.058Z,3.80
2019-01-27T13:04:04.063Z,2.90
2019-01-27T13:05:04.031Z,3.50
2019-01-27T13:06:04.032Z,3.60
2019-01-27T13:07:04.007Z,7.20
2019-01-27T13:08:04.001Z,6.20
2019-01-27T13:09:04.034Z,5.50
2019-01-27T13:10:04.363Z,5.30
2019-01-27T13:11:05.705Z,4.20
2019-01-27T13:12:03.955Z,10.40
2019-01-27T13:13:03.947Z,11.20
2019-01-27T13:14:03.932Z,6.20
2019-01-27T13:15:04.029Z,6.00
2019-01-27T13:16:03.957Z,5.20
2019-01-27T13:17:07.510Z,5.80
2019-01-27T13:18:03.887Z,4.80
2019-01-27T13:19:03.876Z,6.00
2019-01-27T13:20:03.879Z,5.80
2019-01-27T13:21:04.442Z,3.30
2019-01-27T13:22:03.889Z,3.00
2019-01-27T13:23:03.873Z,4.60
2019-01-27T13:24:03.825Z,3.40